createdAt,value
2023-01-15T00:01:02.668Z,99066.91
2023-01-15T00:03:31.867Z,99055.13
2023-01-15T00:06:03.713Z,99048.50
2023-01-15T00:08:36.991Z,99050.63
2023-01-15T00:11:05.618Z,99044.88
2023-01-15T00:13:33.518Z,99040.59
2023-01-15T00:16:06.756Z,99037.47
2023-01-15T00:18:36.563Z,99041.44
2023-01-15T00:21:06.724Z,99041.97
2023-01-15T00:23:54.401Z,99039.63
2023-01-15T00:26:41.742Z,99035.47
2023-01-15T00:29:10.172Z,99004.09
2023-01-15T00:31:38.130Z,99016.09
2023-01-15T00:34:07.284Z,99023.00
2023-01-15T00:36:37.672Z,99016.41
2023-01-15T00:39:09.956Z,99015.91
2023-01-15T00:41:38.265Z,99009.19
2023-01-15T00:44:07.191Z,99001.09
2023-01-15T00:46:35.162Z,99006.56
2023-01-15T00:49:03.401Z,99013.66
2023-01-15T00:51:31.390Z,98993.47
2023-01-15T00:53:59.333Z,99000.53
2023-01-15T00:56:29.549Z,98999.72
2023-01-15T00:59:02.068Z,99007.44
2023-01-15T01:01:30.788Z,99001.22
2023-01-15T01:03:58.654Z,99009.28
2023-01-15T01:06:27.677Z,99003.25
2023-01-15T01:08:55.994Z,99006.53
2023-01-15T01:11:27.282Z,98986.25
2023-01-15T01:13:56.840Z,98992.34
2023-01-15T01:16:32.727Z,99001.38
2023-01-15T01:19:03.675Z,99002.22
2023-01-15T01:21:34.356Z,99035.00
2023-01-15T01:24:03.095Z,98994.63
2023-01-15T01:26:31.977Z,99011.78
2023-01-15T01:29:01.950Z,99017.22
2023-01-15T01:31:30.538Z,99005.66
2023-01-15T01:34:01.298Z,99012.94
2023-01-15T01:36:33.991Z,99009.47
2023-01-15T01:39:06.807Z,99016.22
2023-01-15T01:41:35.757Z,99022.47
2023-01-15T01:44:06.932Z,99016.06
2023-01-15T01:46:37.113Z,99022.34
2023-01-15T01:49:09.402Z,99016.38
2023-01-15T01:51:42.070Z,99018.34
2023-01-15T01:54:12.245Z,99017.22
2023-01-15T01:56:41.006Z,99018.16
2023-01-15T01:59:11.328Z,99033.00
2023-01-15T02:01:41.322Z,99047.50
2023-01-15T02:04:11.862Z,99067.16
2023-01-15T02:06:43.612Z,99040.94
2023-01-15T02:09:12.092Z,99046.84
2023-01-15T02:11:44.173Z,99057.09
2023-01-15T02:14:18.737Z,99059.34
2023-01-15T02:16:52.819Z,99058.50
2023-01-15T02:19:31.034Z,99065.38
2023-01-15T02:22:06.248Z,99063.06
2023-01-15T02:24:45.443Z,99065.84
2023-01-15T02:27:18.011Z,99057.91
2023-01-15T02:29:54.081Z,99059.00
2023-01-15T02:32:31.172Z,99066.91
2023-01-15T02:35:06.115Z,99079.75
2023-01-15T02:37:42.499Z,99089.72
2023-01-15T02:40:13.930Z,99089.19
2023-01-15T02:42:47.512Z,99092.16
2023-01-15T02:45:18.945Z,99098.59
2023-01-15T02:47:49.509Z,99091.31
2023-01-15T02:50:24.924Z,99087.72
2023-01-15T02:52:57.284Z,99086.47
2023-01-15T02:55:33.611Z,99091.69
2023-01-15T02:58:07.360Z,99100.06
2023-01-15T03:00:40.026Z,99098.94
2023-01-15T03:03:11.911Z,99111.56
2023-01-15T03:05:43.721Z,99104.69
2023-01-15T03:08:12.440Z,99108.59
2023-01-15T03:10:47.614Z,99114.75
2023-01-15T03:13:21.986Z,99119.59
2023-01-15T03:16:19.943Z,99125.19
2023-01-15T03:18:52.981Z,99130.03
2023-01-15T03:21:30.159Z,99132.94
2023-01-15T03:24:03.417Z,99120.09
2023-01-15T03:26:34.198Z,99123.63
2023-01-15T03:29:07.090Z,99127.22
2023-01-15T03:31:39.124Z,99117.47
2023-01-15T03:34:07.296Z,99132.56
2023-01-15T03:36:36.068Z,99129.75
2023-01-15T03:39:05.374Z,99138.31
2023-01-15T03:41:56.212Z,99141.94
2023-01-15T03:44:39.731Z,99135.72
2023-01-15T03:47:22.074Z,99150.53
2023-01-15T03:49:57.933Z,99153.34
2023-01-15T03:52:45.817Z,99156.41
2023-01-15T03:55:19.317Z,99166.78
2023-01-15T03:58:00.308Z,99172.72
2023-01-15T04:00:37.214Z,99164.56
2023-01-15T04:03:10.858Z,99172.88
2023-01-15T04:05:41.125Z,99175.09
2023-01-15T04:08:17.698Z,99181.59
2023-01-15T04:11:07.041Z,99180.09
2023-01-15T04:13:45.165Z,99176.78
2023-01-15T04:16:28.633Z,99172.63
2023-01-15T04:18:56.610Z,99180.69
2023-01-15T04:21:25.686Z,99190.63
2023-01-15T04:23:53.958Z,99183.97
2023-01-15T04:26:21.797Z,99196.00
2023-01-15T04:28:50.216Z,99196.50
2023-01-15T04:31:18.733Z,99203.31
2023-01-15T04:33:48.472Z,99205.06
2023-01-15T04:36:16.377Z,99209.63
2023-01-15T04:38:44.311Z,99219.41
2023-01-15T04:41:29.717Z,99227.41
2023-01-15T04:44:12.150Z,99225.44
2023-01-15T04:46:43.745Z,99228.47
2023-01-15T04:49:15.051Z,99253.59
2023-01-15T04:51:43.880Z,99246.16
2023-01-15T04:54:13.912Z,99248.91
2023-01-15T04:56:44.098Z,99233.16
2023-01-15T04:59:12.528Z,99230.66
2023-01-15T05:01:51.210Z,99243.47
2023-01-15T05:04:27.971Z,99254.06
2023-01-15T05:06:56.011Z,99263.59
2023-01-15T05:09:23.825Z,99261.66
2023-01-15T05:11:51.777Z,99249.56
2023-01-15T05:14:19.636Z,99257.38
2023-01-15T05:16:47.715Z,99250.38
2023-01-15T05:19:15.504Z,99252.94
2023-01-15T05:21:47.520Z,99244.41
2023-01-15T05:24:17.710Z,99246.56
2023-01-15T05:26:46.068Z,99239.97
2023-01-15T05:29:14.842Z,99247.59
2023-01-15T05:31:45.859Z,99243.16
2023-01-15T05:34:14.564Z,99245.19
2023-01-15T05:36:42.809Z,99254.28
2023-01-15T05:39:14.399Z,99256.88
2023-01-15T05:41:51.481Z,99263.22
2023-01-15T05:44:22.668Z,99272.72
2023-01-15T05:46:52.259Z,99287.88
2023-01-15T05:49:23.108Z,99294.66
2023-01-15T05:51:54.503Z,99293.84
2023-01-15T05:54:26.232Z,99296.31
2023-01-15T05:56:55.229Z,99287.63
2023-01-15T05:59:24.605Z,99292.59
2023-01-15T06:01:53.039Z,99301.19
2023-01-15T06:04:21.842Z,99298.56
2023-01-15T06:06:51.340Z,99301.19
2023-01-15T06:09:24.224Z,99294.66
2023-01-15T06:11:53.596Z,99302.41
2023-01-15T06:14:21.907Z,99294.41
2023-01-15T06:16:50.009Z,99286.56
2023-01-15T06:19:17.856Z,99298.13
2023-01-15T06:21:46.351Z,99312.03
2023-01-15T06:24:16.864Z,99312.88
2023-01-15T06:26:47.072Z,99310.94
2023-01-15T06:29:40.446Z,99295.63
2023-01-15T06:32:11.216Z,99293.13
2023-01-15T06:34:43.690Z,99298.25
2023-01-15T06:37:11.783Z,99301.03
2023-01-15T06:39:39.599Z,99292.59
2023-01-15T06:42:27.669Z,99299.78
2023-01-15T06:45:13.101Z,99311.47
2023-01-15T06:47:41.458Z,99325.81
2023-01-15T06:50:10.660Z,99342.91
2023-01-15T06:52:39.110Z,99337.94
2023-01-15T06:55:07.916Z,99336.50
2023-01-15T06:57:40.115Z,99341.63
2023-01-15T07:00:09.466Z,99352.22
2023-01-15T07:02:37.417Z,99344.94
2023-01-15T07:05:06.035Z,99337.94
2023-01-15T07:07:34.666Z,99343.75
2023-01-15T07:10:02.637Z,99344.84
2023-01-15T07:12:30.611Z,99355.81
2023-01-15T07:15:00.557Z,99358.81
2023-01-15T07:17:31.284Z,99349.31
2023-01-15T07:19:59.352Z,99349.31
2023-01-15T07:22:27.481Z,99347.78
2023-01-15T07:24:55.298Z,99345.03
2023-01-15T07:27:23.453Z,99358.53
2023-01-15T07:29:52.151Z,99364.00
2023-01-15T07:32:21.627Z,99372.81
2023-01-15T07:34:49.741Z,99381.25
2023-01-15T07:37:17.968Z,99389.44
2023-01-15T07:39:45.773Z,99402.47
2023-01-15T07:42:28.252Z,99397.91
2023-01-15T07:45:14.665Z,99410.56
2023-01-15T07:48:01.761Z,99413.19
2023-01-15T07:50:29.751Z,99412.78
2023-01-15T07:52:58.210Z,99416.38
2023-01-15T07:55:26.420Z,99412.09
2023-01-15T07:57:54.547Z,99407.81
2023-01-15T08:00:26.271Z,99413.75
2023-01-15T08:02:56.223Z,99417.91
2023-01-15T08:05:24.410Z,99415.69
2023-01-15T08:07:52.515Z,99420.59
2023-01-15T08:10:20.766Z,99418.84
2023-01-15T08:13:09.294Z,99425.38
2023-01-15T08:15:40.766Z,99437.13
2023-01-15T08:18:10.117Z,99433.06
2023-01-15T08:20:38.419Z,99437.13
2023-01-15T08:23:06.286Z,99444.97
2023-01-15T08:25:34.227Z,99446.31
2023-01-15T08:28:03.665Z,99435.84
2023-01-15T08:30:31.661Z,99440.38
2023-01-15T08:33:03.680Z,99437.75
2023-01-15T08:35:34.314Z,99449.31
2023-01-15T08:38:06.009Z,99454.91
2023-01-15T08:40:57.456Z,99450.38
2023-01-15T08:43:26.034Z,99455.63
2023-01-15T08:45:54.098Z,99456.47
2023-01-15T08:48:24.800Z,99458.56
2023-01-15T08:50:54.504Z,99475.41
2023-01-15T08:53:26.538Z,99475.03
2023-01-15T08:55:57.312Z,99482.97
2023-01-15T08:58:25.677Z,99482.34
2023-01-15T09:00:54.173Z,99484.75
2023-01-15T09:03:22.193Z,99494.16
2023-01-15T09:05:52.257Z,99488.63
2023-01-15T09:08:21.550Z,99490.09
2023-01-15T09:10:49.522Z,99481.66
2023-01-15T09:13:19.088Z,99486.66
2023-01-15T09:15:49.147Z,99495.44
2023-01-15T09:18:19.300Z,99492.59
2023-01-15T09:20:47.586Z,99504.03
2023-01-15T09:23:15.782Z,99502.94
2023-01-15T09:25:54.187Z,99503.19
2023-01-15T09:28:23.068Z,99507.50
2023-01-15T09:30:51.992Z,99501.41
2023-01-15T09:33:20.112Z,99509.13
2023-01-15T09:35:48.543Z,99522.84
2023-01-15T09:38:18.555Z,99540.22
2023-01-15T09:40:50.094Z,99537.84
2023-01-15T09:43:50.210Z,99536.28
2023-01-15T09:46:23.129Z,99534.25
2023-01-15T09:49:04.181Z,99535.66
2023-01-15T09:51:38.681Z,99546.66
2023-01-15T09:54:33.847Z,99538.09
2023-01-15T09:57:02.437Z,99536.19
2023-01-15T09:59:36.577Z,99544.38
2023-01-15T10:02:22.468Z,99562.34
2023-01-15T10:04:56.735Z,99558.81
2023-01-15T10:07:31.660Z,99552.34
2023-01-15T10:10:04.606Z,99562.28
2023-01-15T10:12:38.748Z,99563.09
2023-01-15T10:15:23.543Z,99554.97
2023-01-15T10:17:54.362Z,99557.47
2023-01-15T10:20:50.491Z,99554.78
2023-01-15T10:23:31.009Z,99542.50
2023-01-15T10:26:04.702Z,99540.59
2023-01-15T10:28:44.618Z,99530.44
2023-01-15T10:31:20.771Z,99529.41
2023-01-15T10:34:04.031Z,99537.63
2023-01-15T10:36:40.797Z,99545.50
2023-01-15T10:39:21.242Z,99539.19
2023-01-15T10:42:01.310Z,99548.81
2023-01-15T10:44:40.521Z,99554.63
2023-01-15T10:47:15.355Z,99543.72
2023-01-15T10:49:44.699Z,99547.16
2023-01-15T10:52:23.966Z,99539.50
2023-01-15T10:54:58.232Z,99549.19
2023-01-15T10:57:45.103Z,99546.41
2023-01-15T11:00:14.023Z,99540.91
2023-01-15T11:02:45.626Z,99552.94
2023-01-15T11:05:16.979Z,99544.44
2023-01-15T11:08:10.501Z,99546.84
2023-01-15T11:10:36.272Z,99544.44
2023-01-15T11:13:38.819Z,99535.63
2023-01-15T11:16:30.886Z,99546.84
2023-01-15T11:19:23.703Z,99543.53
2023-01-15T11:21:54.498Z,99545.97
2023-01-15T11:24:22.973Z,99560.91
2023-01-15T11:26:54.726Z,99557.53
2023-01-15T11:29:34.977Z,99556.94
2023-01-15T11:32:03.530Z,99548.88
2023-01-15T11:34:33.000Z,99542.56
2023-01-15T11:37:05.955Z,99550.47
2023-01-15T11:39:34.338Z,99560.84
2023-01-15T11:42:21.778Z,99559.16
2023-01-15T11:45:20.793Z,99563.78
2023-01-15T11:48:10.332Z,99569.34
2023-01-15T11:50:48.451Z,99567.44
2023-01-15T11:53:23.086Z,99581.06
2023-01-15T11:56:00.889Z,99577.25
2023-01-15T11:58:34.930Z,99577.75
2023-01-15T12:01:03.772Z,99591.22
2023-01-15T12:03:36.121Z,99576.88
2023-01-15T12:06:08.580Z,99594.19
2023-01-15T12:08:47.500Z,99581.63
2023-01-15T12:11:27.474Z,99574.31
2023-01-15T12:14:13.133Z,99579.75
2023-01-15T12:16:48.145Z,99570.13
2023-01-15T12:19:26.700Z,99554.09
2023-01-15T12:22:21.038Z,99551.34
2023-01-15T12:25:31.848Z,99547.94
2023-01-15T12:28:07.705Z,99538.81
2023-01-15T12:30:49.667Z,99544.50
2023-01-15T12:33:26.967Z,99548.22
2023-01-15T12:35:59.599Z,99540.78
2023-01-15T12:38:48.787Z,99545.50
2023-01-15T12:41:22.672Z,99542.03
2023-01-15T12:44:11.964Z,99540.47
2023-01-15T12:46:44.201Z,99531.66
2023-01-15T12:49:28.955Z,99530.69
2023-01-15T12:52:05.592Z,99546.75
2023-01-15T12:54:42.725Z,99528.63
2023-01-15T12:57:18.055Z,99540.13
2023-01-15T12:59:50.391Z,99537.38
2023-01-15T13:02:22.494Z,99532.66
2023-01-15T13:04:53.363Z,99545.13
2023-01-15T13:07:29.903Z,99548.16
2023-01-15T13:10:08.227Z,99534.06
2023-01-15T13:12:36.213Z,99532.66
2023-01-15T13:15:05.826Z,99526.84
2023-01-15T13:17:53.148Z,99517.72
2023-01-15T13:20:43.275Z,99518.00
2023-01-15T13:23:33.918Z,99525.75
2023-01-15T13:26:18.716Z,99530.06
2023-01-15T13:29:03.149Z,99523.97
2023-01-15T13:32:00.996Z,99525.59
2023-01-15T13:34:36.771Z,99527.66
2023-01-15T13:37:17.656Z,99531.28
2023-01-15T13:39:48.312Z,99529.63
2023-01-15T13:42:34.486Z,99545.25
2023-01-15T13:45:27.786Z,99539.16
2023-01-15T13:48:00.552Z,99544.00
2023-01-15T13:50:32.442Z,99543.81
2023-01-15T13:53:14.724Z,99540.28
2023-01-15T13:55:51.517Z,99548.56
2023-01-15T13:58:36.035Z,99547.78
2023-01-15T14:01:09.157Z,99562.75
2023-01-15T14:03:39.336Z,99557.97
2023-01-15T14:06:09.330Z,99583.16
2023-01-15T14:08:42.280Z,99577.84
2023-01-15T14:11:36.121Z,99572.84
2023-01-15T14:14:42.131Z,99588.50
2023-01-15T14:17:47.911Z,99567.34
2023-01-15T14:20:38.303Z,99567.84
2023-01-15T14:23:23.994Z,99569.41
2023-01-15T14:26:03.764Z,99578.81
2023-01-15T14:28:50.638Z,99581.13
2023-01-15T14:31:36.547Z,99580.44
2023-01-15T14:34:14.816Z,99593.16
2023-01-15T14:36:51.968Z,99589.75
2023-01-15T14:39:27.425Z,99606.50
2023-01-15T14:42:22.808Z,99596.47
2023-01-15T14:45:00.078Z,99600.75
2023-01-15T14:47:35.476Z,99606.28
2023-01-15T14:50:20.706Z,99612.22
2023-01-15T14:52:51.371Z,99631.25
2023-01-15T14:55:21.259Z,99639.97
2023-01-15T14:57:57.616Z,99626.44
2023-01-15T15:00:30.809Z,99629.00
2023-01-15T15:03:02.469Z,99639.13
2023-01-15T15:05:35.151Z,99641.53
2023-01-15T15:08:05.544Z,99643.41
2023-01-15T15:10:46.255Z,99640.34
2023-01-15T15:13:20.559Z,99646.19
2023-01-15T15:15:54.277Z,99655.34
2023-01-15T15:18:31.793Z,99647.84
2023-01-15T15:21:07.338Z,99648.88
2023-01-15T15:23:40.815Z,99649.63
2023-01-15T15:26:22.836Z,99648.44
2023-01-15T15:29:00.459Z,99650.03
2023-01-15T15:31:30.228Z,99652.44
2023-01-15T15:34:00.129Z,99658.91
2023-01-15T15:36:31.217Z,99644.72
2023-01-15T15:39:03.062Z,99639.00
2023-01-15T15:41:53.508Z,99644.75
2023-01-15T15:44:50.176Z,99650.00
2023-01-15T15:47:37.657Z,99640.41
2023-01-15T15:50:08.788Z,99643.78
2023-01-15T15:52:45.721Z,99656.19
2023-01-15T15:55:16.991Z,99633.41
2023-01-15T15:57:47.587Z,99651.56
2023-01-15T16:00:19.560Z,99655.41
2023-01-15T16:02:50.336Z,99652.16
2023-01-15T16:05:24.672Z,99664.66
2023-01-15T16:07:53.837Z,99654.41
2023-01-15T16:10:27.150Z,99658.22
2023-01-15T16:12:58.852Z,99657.75
2023-01-15T16:15:29.804Z,99675.38
2023-01-15T16:17:58.943Z,99658.34
2023-01-15T16:20:29.002Z,99658.50
2023-01-15T16:22:59.477Z,99660.00
2023-01-15T16:25:31.539Z,99654.66
2023-01-15T16:28:00.584Z,99660.81
2023-01-15T16:30:29.572Z,99664.88
2023-01-15T16:33:03.014Z,99664.88
2023-01-15T16:35:37.165Z,99666.84
2023-01-15T16:38:07.471Z,99656.56
2023-01-15T16:40:38.530Z,99647.06
2023-01-15T16:43:15.177Z,99639.66
2023-01-15T16:46:00.789Z,99650.84
2023-01-15T16:48:34.405Z,99647.66
2023-01-15T16:51:42.557Z,99648.28
2023-01-15T16:54:43.714Z,99641.47
2023-01-15T16:57:34.721Z,99657.81
2023-01-15T17:00:07.795Z,99647.81
2023-01-15T17:02:44.217Z,99647.34
2023-01-15T17:05:24.111Z,99651.16
2023-01-15T17:07:55.133Z,99643.16
2023-01-15T17:10:27.733Z,99645.88
2023-01-15T17:12:57.211Z,99642.09
2023-01-15T17:15:38.780Z,99652.19
2023-01-15T17:18:27.122Z,99648.72
2023-01-15T17:20:59.128Z,99647.22
2023-01-15T17:23:37.242Z,99673.03
2023-01-15T17:26:08.248Z,99650.66
2023-01-15T17:28:38.295Z,99643.25
2023-01-15T17:31:06.634Z,99639.34
2023-01-15T17:33:34.646Z,99657.22
2023-01-15T17:36:08.321Z,99644.69
2023-01-15T17:38:36.291Z,99651.63
2023-01-15T17:41:08.268Z,99638.31
2023-01-15T17:43:37.661Z,99654.38
2023-01-15T17:46:05.893Z,99634.16
2023-01-15T17:48:36.480Z,99638.91
2023-01-15T17:51:06.360Z,99641.53
2023-01-15T17:53:36.003Z,99643.31
2023-01-15T17:56:23.919Z,99659.13
2023-01-15T17:59:11.071Z,99649.97
2023-01-15T18:02:01.234Z,99647.47
2023-01-15T18:04:53.766Z,99637.31
2023-01-15T18:07:25.208Z,99638.72
2023-01-15T18:09:56.263Z,99634.91
2023-01-15T18:12:24.258Z,99641.34
2023-01-15T18:14:53.823Z,99629.00
2023-01-15T18:17:22.496Z,99629.56
2023-01-15T18:19:55.642Z,99627.06
2023-01-15T18:22:24.636Z,99623.28
2023-01-15T18:24:53.004Z,99616.94
2023-01-15T18:27:23.338Z,99606.38
2023-01-15T18:29:51.471Z,99600.53
2023-01-15T18:32:21.231Z,99626.09
2023-01-15T18:34:49.391Z,99617.16
2023-01-15T18:37:19.740Z,99612.31
2023-01-15T18:39:47.923Z,99606.41
2023-01-15T18:42:35.573Z,99607.81
2023-01-15T18:45:21.183Z,99606.41
2023-01-15T18:47:53.313Z,99596.88
2023-01-15T18:50:21.392Z,99591.63
2023-01-15T18:52:53.097Z,99584.03
2023-01-15T18:55:24.755Z,99589.25
2023-01-15T18:57:55.535Z,99586.41
2023-01-15T19:00:26.536Z,99577.84
2023-01-15T19:03:02.263Z,99574.03
2023-01-15T19:05:30.595Z,99572.00
2023-01-15T19:07:58.785Z,99568.69
2023-01-15T19:10:27.022Z,99566.19
2023-01-15T19:12:54.898Z,99574.13
2023-01-15T19:15:40.816Z,99581.88
2023-01-15T19:18:29.916Z,99571.16
2023-01-15T19:20:57.974Z,99563.81
2023-01-15T19:23:25.986Z,99571.88
2023-01-15T19:25:55.368Z,99562.75
2023-01-15T19:28:24.342Z,99565.72
2023-01-15T19:31:06.362Z,99553.56
2023-01-15T19:33:36.024Z,99556.69
2023-01-15T19:36:05.255Z,99559.78
2023-01-15T19:38:34.888Z,99552.75
2023-01-15T19:41:23.688Z,99570.47
2023-01-15T19:44:09.883Z,99569.53
2023-01-15T19:46:58.504Z,99567.41
2023-01-15T19:49:46.041Z,99560.72
2023-01-15T19:52:31.590Z,99555.47
2023-01-15T19:55:00.380Z,99554.31
2023-01-15T19:57:28.286Z,99559.53
2023-01-15T19:59:56.330Z,99559.28
2023-01-15T20:02:26.625Z,99554.44
2023-01-15T20:04:56.448Z,99543.56
2023-01-15T20:07:24.471Z,99545.22
2023-01-15T20:09:52.533Z,99546.19
2023-01-15T20:12:38.729Z,99544.00
2023-01-15T20:15:09.314Z,99547.97
2023-01-15T20:17:39.956Z,99534.59
2023-01-15T20:20:11.281Z,99540.69
2023-01-15T20:22:39.703Z,99532.84
2023-01-15T20:25:08.924Z,99531.25
2023-01-15T20:27:39.422Z,99530.16
2023-01-15T20:30:11.463Z,99517.81
2023-01-15T20:32:41.037Z,99510.53
2023-01-15T20:35:15.983Z,99522.03
2023-01-15T20:37:44.686Z,99503.09
2023-01-15T20:40:13.556Z,99507.28
2023-01-15T20:42:58.890Z,99496.09
2023-01-15T20:45:28.640Z,99491.44
2023-01-15T20:48:14.010Z,99492.25
2023-01-15T20:51:00.648Z,99489.13
2023-01-15T20:53:30.766Z,99493.78
2023-01-15T20:55:58.876Z,99497.44
2023-01-15T20:58:27.448Z,99495.50
2023-01-15T21:00:56.417Z,99503.59
2023-01-15T21:03:24.566Z,99486.38
2023-01-15T21:05:57.477Z,99469.19
2023-01-15T21:08:25.718Z,99475.16
2023-01-15T21:10:55.418Z,99468.38
2023-01-15T21:13:24.701Z,99469.34
2023-01-15T21:15:58.058Z,99466.50
2023-01-15T21:18:26.711Z,99460.41
2023-01-15T21:20:56.592Z,99452.16
2023-01-15T21:23:25.867Z,99452.81
2023-01-15T21:26:00.572Z,99446.41
2023-01-15T21:28:31.315Z,99442.50
2023-01-15T21:31:00.501Z,99439.41
2023-01-15T21:33:29.016Z,99437.28
2023-01-15T21:35:58.846Z,99432.91
2023-01-15T21:38:27.907Z,99433.00
2023-01-15T21:40:56.328Z,99436.00
2023-01-15T21:43:41.724Z,99430.13
2023-01-15T21:46:10.113Z,99431.22
2023-01-15T21:48:38.095Z,99425.47
2023-01-15T21:51:08.023Z,99420.41
2023-01-15T21:53:36.094Z,99411.09
2023-01-15T21:56:04.907Z,99414.22
2023-01-15T21:58:37.478Z,99408.03
2023-01-15T22:01:11.442Z,99402.50
2023-01-15T22:03:40.119Z,99401.91
2023-01-15T22:06:11.194Z,99392.88
2023-01-15T22:08:39.810Z,99392.03
2023-01-15T22:11:11.466Z,99391.91
2023-01-15T22:13:40.762Z,99389.03
2023-01-15T22:16:09.419Z,99393.25
2023-01-15T22:18:37.660Z,99389.19
2023-01-15T22:21:08.552Z,99377.78
2023-01-15T22:23:38.143Z,99378.94
2023-01-15T22:26:06.512Z,99364.94
2023-01-15T22:28:34.411Z,99365.06
2023-01-15T22:31:06.338Z,99369.47
2023-01-15T22:33:34.571Z,99362.69
2023-01-15T22:36:08.310Z,99354.69
2023-01-15T22:38:37.696Z,99356.81
2023-01-15T22:41:06.743Z,99347.66
2023-01-15T22:43:35.353Z,99343.81
2023-01-15T22:46:13.639Z,99340.00
2023-01-15T22:48:41.932Z,99344.84
2023-01-15T22:51:09.844Z,99339.13
2023-01-15T22:53:40.155Z,99329.94
2023-01-15T22:56:08.990Z,99324.97
2023-01-15T22:58:42.228Z,99327.31
2023-01-15T23:01:13.958Z,99306.94
2023-01-15T23:03:42.613Z,99301.00
2023-01-15T23:06:12.232Z,99311.38
2023-01-15T23:08:43.954Z,99310.00
2023-01-15T23:11:16.168Z,99298.28
2023-01-15T23:13:44.343Z,99299.03
2023-01-15T23:16:13.309Z,99298.59
2023-01-15T23:18:41.547Z,99296.38
2023-01-15T23:21:12.133Z,99286.69
2023-01-15T23:23:40.800Z,99290.75
2023-01-15T23:26:12.501Z,99280.91
2023-01-15T23:28:42.148Z,99264.44
2023-01-15T23:31:10.889Z,99264.44
2023-01-15T23:33:39.421Z,99255.56
2023-01-15T23:36:09.653Z,99264.09
2023-01-15T23:38:37.867Z,99252.38
2023-01-15T23:41:14.069Z,99245.47
2023-01-15T23:44:00.258Z,99251.50
2023-01-15T23:46:35.198Z,99245.59
2023-01-15T23:49:06.590Z,99255.19
2023-01-15T23:51:38.232Z,99244.25
2023-01-15T23:54:11.892Z,99229.75
2023-01-15T23:56:42.282Z,99219.78
2023-01-15T23:59:10.386Z,99217.44
